createdAt,value
2023-02-17T00:01:36.388Z,96689.44
2023-02-17T00:04:22.200Z,96685.34
2023-02-17T00:07:08.177Z,96688.22
2023-02-17T00:09:54.156Z,96692.22
2023-02-17T00:12:40.158Z,96703.78
2023-02-17T00:15:26.280Z,96690.16
2023-02-17T00:18:12.054Z,96700.56
2023-02-17T00:20:57.783Z,96698.97
2023-02-17T00:23:44.619Z,96691.63
2023-02-17T00:26:30.461Z,96680.09
2023-02-17T00:29:16.906Z,96697.91
2023-02-17T00:32:03.174Z,96690.69
2023-02-17T00:34:49.183Z,96697.69
2023-02-17T00:37:35.789Z,96698.63
2023-02-17T00:40:21.588Z,96682.50
2023-02-17T00:43:07.446Z,96701.88
2023-02-17T00:45:53.310Z,96692.63
2023-02-17T00:48:40.707Z,96683.69
2023-02-17T00:51:27.022Z,96690.44
2023-02-17T00:54:13.738Z,96689.75
2023-02-17T00:56:59.494Z,96682.84
2023-02-17T00:59:45.473Z,96682.72
2023-02-17T01:02:31.395Z,96672.03
2023-02-17T01:05:19.381Z,96671.28
2023-02-17T01:08:05.858Z,96673.09
2023-02-17T01:10:53.142Z,96660.44
2023-02-17T01:13:39.157Z,96675.03
2023-02-17T01:16:28.632Z,96682.03
2023-02-17T01:19:19.494Z,96675.28
2023-02-17T01:22:07.662Z,96667.19
2023-02-17T01:24:53.699Z,96667.19
2023-02-17T01:27:39.551Z,96670.81
2023-02-17T01:30:25.530Z,96651.56
2023-02-17T01:33:11.306Z,96653.59
2023-02-17T01:36:05.026Z,96653.13
2023-02-17T01:38:51.313Z,96654.81
2023-02-17T01:41:37.270Z,96653.84
2023-02-17T01:44:24.806Z,96650.72
2023-02-17T01:47:12.769Z,96655.03
2023-02-17T01:49:59.081Z,96652.88
2023-02-17T01:52:45.309Z,96650.22
2023-02-17T01:55:32.365Z,96638.31
2023-02-17T01:58:19.889Z,96645.44
2023-02-17T02:01:06.428Z,96651.69
2023-02-17T02:03:52.741Z,96635.06
2023-02-17T02:06:40.804Z,96648.78
2023-02-17T02:09:32.453Z,96638.56
2023-02-17T02:12:25.568Z,96646.63
2023-02-17T02:15:18.328Z,96622.78
2023-02-17T02:18:27.568Z,96650.69
2023-02-17T02:21:31.115Z,96644.22
2023-02-17T02:24:44.315Z,96646.59
2023-02-17T02:27:30.819Z,96632.78
2023-02-17T02:30:46.166Z,96646.13
2023-02-17T02:33:44.639Z,96643.72
2023-02-17T02:36:38.249Z,96641.56
2023-02-17T02:39:29.715Z,96641.66
2023-02-17T02:42:19.211Z,96635.78
2023-02-17T02:45:07.988Z,96640.22
2023-02-17T02:47:56.061Z,96597.25
2023-02-17T02:51:22.236Z,96636.00
2023-02-17T02:54:50.040Z,96638.88
2023-02-17T02:58:04.151Z,96638.88
2023-02-17T03:00:58.890Z,96648.63
2023-02-17T03:04:10.966Z,96645.00
2023-02-17T03:07:01.565Z,96635.41
2023-02-17T03:09:56.559Z,96652.13
2023-02-17T03:12:42.588Z,96648.63
2023-02-17T03:15:31.493Z,96653.69
2023-02-17T03:18:19.174Z,96641.31
2023-02-17T03:21:12.699Z,96652.25
2023-02-17T03:24:00.027Z,96650.66
2023-02-17T03:26:47.305Z,96656.91
2023-02-17T03:29:33.392Z,96668.13
2023-02-17T03:32:19.663Z,96657.88
2023-02-17T03:35:05.930Z,96659.06
2023-02-17T03:37:52.107Z,96642.00
2023-02-17T03:40:38.042Z,96657.63
2023-02-17T03:43:23.824Z,96656.91
2023-02-17T03:46:14.866Z,96651.63
2023-02-17T03:49:00.831Z,96649.09
2023-02-17T03:51:46.713Z,96636.78
2023-02-17T03:54:32.597Z,96656.28
2023-02-17T03:57:18.374Z,96651.13
2023-02-17T04:00:05.934Z,96635.00
2023-02-17T04:02:59.237Z,96655.44
2023-02-17T04:05:45.389Z,96644.16
2023-02-17T04:08:32.095Z,96656.63
2023-02-17T04:11:18.259Z,96647.72
2023-02-17T04:14:04.257Z,96644.50
2023-02-17T04:16:50.388Z,96650.63
2023-02-17T04:19:36.052Z,96649.78
2023-02-17T04:22:21.825Z,96638.59
2023-02-17T04:25:07.916Z,96648.22
2023-02-17T04:27:53.894Z,96647.59
2023-02-17T04:30:39.745Z,96640.50
2023-02-17T04:33:25.757Z,96646.66
2023-02-17T04:36:12.113Z,96651.94
2023-02-17T04:38:58.393Z,96654.69
2023-02-17T04:41:44.262Z,96642.22
2023-02-17T04:44:30.058Z,96657.47
2023-02-17T04:47:15.936Z,96652.63
2023-02-17T04:50:01.884Z,96647.09
2023-02-17T04:52:48.433Z,96664.31
2023-02-17T04:55:34.429Z,96651.53
2023-02-17T04:58:20.564Z,96665.38
2023-02-17T05:01:06.740Z,96655.16
2023-02-17T05:03:52.524Z,96641.16
2023-02-17T05:06:38.493Z,96647.06
2023-02-17T05:09:24.375Z,96644.44
2023-02-17T05:12:10.080Z,96648.25
2023-02-17T05:14:55.955Z,96651.63
2023-02-17T05:17:41.902Z,96641.72
2023-02-17T05:20:27.950Z,96647.88
2023-02-17T05:23:14.861Z,96651.25
2023-02-17T05:26:00.743Z,96658.78
2023-02-17T05:28:46.436Z,96657.00
2023-02-17T05:31:32.461Z,96644.44
2023-02-17T05:34:18.302Z,96657.00
2023-02-17T05:37:04.452Z,96656.75
2023-02-17T05:39:50.585Z,96657.72
2023-02-17T05:42:36.257Z,96673.34
2023-02-17T05:45:21.987Z,96668.91
2023-02-17T05:48:07.717Z,96672.38
2023-02-17T05:50:53.640Z,96679.97
2023-02-17T05:53:40.126Z,96685.28
2023-02-17T05:56:25.966Z,96693.00
2023-02-17T05:59:11.936Z,96675.53
2023-02-17T06:01:57.832Z,96692.88
2023-02-17T06:04:43.655Z,96672.50
2023-02-17T06:07:29.593Z,96696.13
2023-02-17T06:10:15.435Z,96704.66
2023-02-17T06:13:01.363Z,96693.50
2023-02-17T06:15:47.622Z,96695.78
2023-02-17T06:18:33.447Z,96700.13
2023-02-17T06:21:19.228Z,96701.56
2023-02-17T06:24:05.398Z,96702.88
2023-02-17T06:26:51.668Z,96702.00
2023-02-17T06:29:37.686Z,96709.94
2023-02-17T06:32:23.437Z,96705.75
2023-02-17T06:35:09.431Z,96700.59
2023-02-17T06:37:55.549Z,96710.06
2023-02-17T06:40:41.292Z,96710.31
2023-02-17T06:43:27.173Z,96714.53
2023-02-17T06:46:13.158Z,96720.53
2023-02-17T06:49:00.174Z,96709.22
2023-02-17T06:51:46.283Z,96724.97
2023-02-17T06:54:31.994Z,96717.03
2023-02-17T06:57:18.408Z,96719.34
2023-02-17T07:00:05.359Z,96714.81
2023-02-17T07:02:51.407Z,96684.22
2023-02-17T07:05:38.079Z,96715.31
2023-02-17T07:08:24.470Z,96722.06
2023-02-17T07:11:12.514Z,96719.06
2023-02-17T07:13:59.659Z,96714.50
2023-02-17T07:16:45.942Z,96728.00
2023-02-17T07:19:31.727Z,96708.00
2023-02-17T07:22:17.680Z,96698.75
2023-02-17T07:25:04.014Z,96708.94
2023-02-17T07:27:49.770Z,96710.88
2023-02-17T07:30:39.637Z,96723.63
2023-02-17T07:33:25.630Z,96715.34
2023-02-17T07:36:13.652Z,96687.06
2023-02-17T07:39:00.112Z,96706.81
2023-02-17T07:41:46.271Z,96714.88
2023-02-17T07:44:37.175Z,96710.56
2023-02-17T07:47:22.948Z,96710.81
2023-02-17T07:50:09.312Z,96712.81
2023-02-17T07:52:55.266Z,96718.84
2023-02-17T07:55:40.911Z,96715.38
2023-02-17T07:58:26.858Z,96708.94
2023-02-17T08:01:23.730Z,96701.81
2023-02-17T08:04:09.740Z,96693.09
2023-02-17T08:06:56.495Z,96696.09
2023-02-17T08:10:00.935Z,96686.28
2023-02-17T08:13:05.494Z,96685.63
2023-02-17T08:15:51.686Z,96682.50
2023-02-17T08:18:37.547Z,96695.94
2023-02-17T08:21:24.620Z,96696.03
2023-02-17T08:24:10.934Z,96689.94
2023-02-17T08:26:56.652Z,96693.44
2023-02-17T08:29:42.538Z,96687.66
2023-02-17T08:32:28.446Z,96686.63
2023-02-17T08:35:14.415Z,96676.88
2023-02-17T08:38:00.564Z,96683.66
2023-02-17T08:40:46.221Z,96679.06
2023-02-17T08:43:32.107Z,96667.78
2023-02-17T08:46:19.718Z,96674.13
2023-02-17T08:49:08.638Z,96670.38
2023-02-17T08:51:54.594Z,96670.81
2023-02-17T08:54:40.491Z,96672.25
2023-02-17T08:57:26.739Z,96673.41
2023-02-17T09:00:13.004Z,96669.34
2023-02-17T09:02:59.311Z,96668.06
2023-02-17T09:05:45.481Z,96657.97
2023-02-17T09:08:31.633Z,96658.22
2023-02-17T09:11:19.893Z,96646.69
2023-02-17T09:14:07.032Z,96668.25
2023-02-17T09:16:54.295Z,96668.34
2023-02-17T09:19:40.901Z,96649.78
2023-02-17T09:22:32.017Z,96639.31
2023-02-17T09:25:18.933Z,96666.81
2023-02-17T09:28:05.280Z,96655.13
2023-02-17T09:30:51.210Z,96651.53
2023-02-17T09:33:37.470Z,96646.19
2023-02-17T09:36:29.848Z,96648.88
2023-02-17T09:39:16.320Z,96646.94
2023-02-17T09:42:02.526Z,96633.78
2023-02-17T09:44:55.279Z,96645.59
2023-02-17T09:47:47.044Z,96624.59
2023-02-17T09:50:38.220Z,96634.63
2023-02-17T09:53:43.487Z,96641.22
2023-02-17T09:56:34.041Z,96632.00
2023-02-17T09:59:32.862Z,96611.06
2023-02-17T10:02:26.358Z,96621.34
2023-02-17T10:05:16.343Z,96619.72
2023-02-17T10:08:13.389Z,96622.94
2023-02-17T10:11:17.089Z,96616.72
2023-02-17T10:14:11.223Z,96617.25
2023-02-17T10:17:18.859Z,96613.75
2023-02-17T10:20:07.628Z,96610.75
2023-02-17T10:23:04.347Z,96596.38
2023-02-17T10:26:09.382Z,96598.34
2023-02-17T10:29:24.873Z,96594.81
2023-02-17T10:32:19.466Z,96587.44
2023-02-17T10:35:11.972Z,96585.38
2023-02-17T10:38:32.974Z,96597.31
2023-02-17T10:41:33.598Z,96593.53
2023-02-17T10:44:21.838Z,96562.44
2023-02-17T10:47:09.154Z,96569.97
2023-02-17T10:49:56.382Z,96578.44
2023-02-17T10:52:42.418Z,96571.00
2023-02-17T10:55:34.301Z,96531.72
2023-02-17T10:58:27.287Z,96538.53
2023-02-17T11:01:14.089Z,96535.25
2023-02-17T11:04:13.675Z,96530.53
2023-02-17T11:07:00.554Z,96541.56
2023-02-17T11:09:52.484Z,96531.88
2023-02-17T11:12:41.959Z,96525.91
2023-02-17T11:15:32.167Z,96525.81
2023-02-17T11:18:24.175Z,96518.59
2023-02-17T11:21:11.751Z,96504.97
2023-02-17T11:24:05.159Z,96484.34
2023-02-17T11:27:02.949Z,96520.09
2023-02-17T11:29:49.076Z,96505.72
2023-02-17T11:32:36.252Z,96507.13
2023-02-17T11:35:37.461Z,96511.56
2023-02-17T11:38:29.026Z,96510.56
2023-02-17T11:41:15.159Z,96504.16
2023-02-17T11:44:01.035Z,96484.59
2023-02-17T11:46:57.892Z,96490.25
2023-02-17T11:49:55.976Z,96492.84
2023-02-17T11:52:41.572Z,96480.22
2023-02-17T11:55:36.164Z,96478.06
2023-02-17T11:58:43.781Z,96475.88
2023-02-17T12:01:33.178Z,96470.09
2023-02-17T12:04:22.123Z,96467.88
2023-02-17T12:07:24.848Z,96471.44
2023-02-17T12:10:13.947Z,96469.00
2023-02-17T12:13:33.993Z,96455.44
2023-02-17T12:16:43.962Z,96443.09
2023-02-17T12:19:49.659Z,96450.13
2023-02-17T12:22:38.328Z,96446.94
2023-02-17T12:25:31.949Z,96436.63
2023-02-17T12:28:40.652Z,96440.41
2023-02-17T12:31:55.542Z,96434.25
2023-02-17T12:34:52.908Z,96397.13
2023-02-17T12:37:48.520Z,96422.78
2023-02-17T12:40:38.747Z,96393.44
2023-02-17T12:43:33.167Z,96420.41
2023-02-17T12:46:27.703Z,96415.47
2023-02-17T12:49:18.681Z,96396.78
2023-02-17T12:52:18.974Z,96409.94
2023-02-17T12:55:12.525Z,96406.94
2023-02-17T12:58:01.623Z,96401.38
2023-02-17T13:01:11.008Z,96382.16
2023-02-17T13:03:59.747Z,96397.06
2023-02-17T13:06:50.666Z,96384.03
2023-02-17T13:09:40.247Z,96386.97
2023-02-17T13:12:26.340Z,96372.91
2023-02-17T13:15:30.876Z,96382.91
2023-02-17T13:18:31.974Z,96394.19
2023-02-17T13:21:25.072Z,96365.22
2023-02-17T13:24:16.347Z,96390.16
2023-02-17T13:27:37.363Z,96395.63
2023-02-17T13:30:26.186Z,96391.50
2023-02-17T13:33:21.209Z,96387.19
2023-02-17T13:36:22.642Z,96378.94
2023-02-17T13:39:27.432Z,96377.75
2023-02-17T13:42:34.840Z,96401.94
2023-02-17T13:45:34.113Z,96395.50
2023-02-17T13:48:19.927Z,96393.03
2023-02-17T13:51:07.555Z,96394.97
2023-02-17T13:53:53.800Z,96396.06
2023-02-17T13:56:39.854Z,96385.69
2023-02-17T13:59:27.201Z,96384.66
2023-02-17T14:02:35.180Z,96381.72
2023-02-17T14:05:27.896Z,96376.78
2023-02-17T14:08:17.403Z,96381.63
2023-02-17T14:11:13.786Z,96356.03
2023-02-17T14:14:00.423Z,96369.50
2023-02-17T14:16:57.249Z,96377.13
2023-02-17T14:19:45.601Z,96376.19
2023-02-17T14:22:33.989Z,96356.72
2023-02-17T14:25:27.960Z,96371.38
2023-02-17T14:28:22.695Z,96360.22
2023-02-17T14:31:19.433Z,96365.28
2023-02-17T14:34:05.903Z,96365.28
2023-02-17T14:36:52.247Z,96369.06
2023-02-17T14:39:38.122Z,96375.50
2023-02-17T14:42:23.914Z,96376.75
2023-02-17T14:45:10.031Z,96371.72
2023-02-17T14:47:57.322Z,96351.13
2023-02-17T14:50:44.320Z,96370.06
2023-02-17T14:53:33.219Z,96364.78
2023-02-17T14:56:34.417Z,96372.63
2023-02-17T14:59:20.307Z,96360.13
2023-02-17T15:02:20.953Z,96352.56
2023-02-17T15:05:08.106Z,96357.78
2023-02-17T15:07:54.529Z,96366.44
2023-02-17T15:10:40.907Z,96363.06
2023-02-17T15:13:27.018Z,96366.97
2023-02-17T15:16:13.300Z,96351.13
2023-02-17T15:18:59.453Z,96362.13
2023-02-17T15:21:50.611Z,96384.78
2023-02-17T15:24:36.880Z,96356.94
2023-02-17T15:27:22.977Z,96374.09
2023-02-17T15:30:20.473Z,96376.06
2023-02-17T15:33:13.605Z,96361.06
2023-02-17T15:36:00.694Z,96358.69
2023-02-17T15:38:46.570Z,96365.03
2023-02-17T15:41:32.533Z,96365.44
2023-02-17T15:44:21.721Z,96361.84
2023-02-17T15:47:12.572Z,96364.28
2023-02-17T15:49:58.519Z,96367.94
2023-02-17T15:52:46.054Z,96376.84
2023-02-17T15:55:33.437Z,96374.91
2023-02-17T15:58:21.851Z,96382.56
2023-02-17T16:01:16.763Z,96383.50
2023-02-17T16:04:03.183Z,96390.28
2023-02-17T16:06:49.322Z,96380.47
2023-02-17T16:09:35.214Z,96384.84
2023-02-17T16:12:27.346Z,96391.63
2023-02-17T16:15:16.412Z,96394.06
2023-02-17T16:18:02.451Z,96396.00
2023-02-17T16:20:48.905Z,96402.97
2023-02-17T16:23:35.130Z,96403.91
2023-02-17T16:26:35.479Z,96415.03
2023-02-17T16:29:22.102Z,96415.69
2023-02-17T16:32:08.197Z,96420.03
2023-02-17T16:34:54.194Z,96395.28
2023-02-17T16:37:40.186Z,96421.41
2023-02-17T16:40:28.691Z,96427.81
2023-02-17T16:43:20.424Z,96433.47
2023-02-17T16:46:07.363Z,96418.16
2023-02-17T16:48:53.688Z,96442.69
2023-02-17T16:51:39.380Z,96440.53
2023-02-17T16:54:25.688Z,96431.56
2023-02-17T16:57:17.490Z,96421.09
2023-02-17T17:00:04.596Z,96440.53
2023-02-17T17:02:50.938Z,96435.25
2023-02-17T17:05:37.103Z,96441.00
2023-02-17T17:08:23.214Z,96444.06
2023-02-17T17:11:14.087Z,96443.63
2023-02-17T17:14:00.137Z,96444.53
2023-02-17T17:16:55.901Z,96446.59
2023-02-17T17:19:42.151Z,96456.69
2023-02-17T17:22:29.561Z,96451.03
2023-02-17T17:25:15.884Z,96454.25
2023-02-17T17:28:02.090Z,96455.13
2023-02-17T17:30:48.710Z,96469.06
2023-02-17T17:33:34.994Z,96469.44
2023-02-17T17:36:25.510Z,96468.63
2023-02-17T17:39:20.435Z,96474.03
2023-02-17T17:42:06.618Z,96468.88
2023-02-17T17:44:52.623Z,96467.69
2023-02-17T17:47:39.044Z,96470.38
2023-02-17T17:50:25.134Z,96485.44
2023-02-17T17:53:11.491Z,96484.28
2023-02-17T17:55:57.891Z,96490.47
2023-02-17T17:58:44.554Z,96486.16
2023-02-17T18:01:31.841Z,96487.00
2023-02-17T18:04:20.531Z,96485.97
2023-02-17T18:07:06.458Z,96505.41
2023-02-17T18:09:52.574Z,96488.00
2023-02-17T18:12:39.295Z,96493.16
2023-02-17T18:15:25.803Z,96501.38
2023-02-17T18:18:12.695Z,96504.72
2023-02-17T18:20:58.431Z,96491.31
2023-02-17T18:23:45.178Z,96505.84
2023-02-17T18:26:31.125Z,96504.16
2023-02-17T18:29:17.093Z,96505.53
2023-02-17T18:32:03.137Z,96510.19
2023-02-17T18:34:49.556Z,96508.31
2023-02-17T18:37:35.809Z,96513.16
2023-02-17T18:40:22.164Z,96507.97
2023-02-17T18:43:09.037Z,96505.91
2023-02-17T18:45:55.285Z,96507.91
2023-02-17T18:48:42.107Z,96509.75
2023-02-17T18:51:28.459Z,96509.19
2023-02-17T18:54:15.310Z,96519.41
2023-02-17T18:57:02.683Z,96524.06
2023-02-17T18:59:49.375Z,96505.06
2023-02-17T19:02:40.371Z,96517.28
2023-02-17T19:05:29.039Z,96509.53
2023-02-17T19:08:15.035Z,96511.53
2023-02-17T19:11:01.216Z,96517.19
2023-02-17T19:13:47.431Z,96517.84
2023-02-17T19:16:34.182Z,96499.03
2023-02-17T19:19:20.253Z,96521.75
2023-02-17T19:22:09.576Z,96536.81
2023-02-17T19:24:55.633Z,96528.94
2023-02-17T19:27:42.077Z,96528.75
2023-02-17T19:30:28.030Z,96519.81
2023-02-17T19:33:14.204Z,96531.03
2023-02-17T19:36:01.020Z,96520.66
2023-02-17T19:38:48.496Z,96516.78
2023-02-17T19:41:36.051Z,96533.84
2023-02-17T19:44:22.363Z,96532.66
2023-02-17T19:47:08.712Z,96550.22
2023-02-17T19:49:55.006Z,96540.28
2023-02-17T19:52:41.783Z,96549.00
2023-02-17T19:55:28.128Z,96536.94
2023-02-17T19:58:14.577Z,96542.59
2023-02-17T20:01:06.190Z,96536.25
2023-02-17T20:03:54.571Z,96544.44
2023-02-17T20:06:45.787Z,96553.28
2023-02-17T20:09:32.251Z,96554.91
2023-02-17T20:12:18.012Z,96553.19
2023-02-17T20:15:04.873Z,96550.69
2023-02-17T20:17:50.666Z,96559.00
2023-02-17T20:20:36.801Z,96547.28
2023-02-17T20:23:22.846Z,96542.22
2023-02-17T20:26:11.520Z,96545.53
2023-02-17T20:28:59.123Z,96542.78
2023-02-17T20:31:45.434Z,96551.84
2023-02-17T20:34:38.560Z,96558.66
2023-02-17T20:37:24.455Z,96569.25
2023-02-17T20:40:10.501Z,96553.53
2023-02-17T20:42:57.164Z,96563.50
2023-02-17T20:45:43.579Z,96554.75
2023-02-17T20:48:29.396Z,96546.50
2023-02-17T20:51:15.317Z,96561.59
2023-02-17T20:54:01.177Z,96565.56
2023-02-17T20:56:47.563Z,96561.50
2023-02-17T20:59:33.967Z,96569.13
2023-02-17T21:02:19.778Z,96558.91
2023-02-17T21:05:06.498Z,96567.22
2023-02-17T21:07:52.413Z,96565.34
2023-02-17T21:10:40.099Z,96556.34
2023-02-17T21:13:27.003Z,96565.63
2023-02-17T21:16:15.201Z,96572.78
2023-02-17T21:19:01.702Z,96564.84
2023-02-17T21:21:47.582Z,96570.50
2023-02-17T21:24:34.342Z,96589.16
2023-02-17T21:27:20.361Z,96576.06
2023-02-17T21:30:07.227Z,96573.00
2023-02-17T21:32:55.218Z,96571.06
2023-02-17T21:35:41.231Z,96574.03
2023-02-17T21:38:27.190Z,96583.31
2023-02-17T21:41:18.142Z,96581.25
2023-02-17T21:44:22.518Z,96570.56
2023-02-17T21:47:09.000Z,96570.88
2023-02-17T21:49:55.221Z,96576.06
2023-02-17T21:52:41.139Z,96584.38
2023-02-17T21:55:27.040Z,96583.09
2023-02-17T21:58:14.313Z,96583.69
2023-02-17T22:01:00.504Z,96590.97
2023-02-17T22:03:46.828Z,96580.75
2023-02-17T22:06:37.193Z,96586.22
2023-02-17T22:09:23.110Z,96592.53
2023-02-17T22:12:08.933Z,96584.81
2023-02-17T22:14:54.780Z,96578.25
2023-02-17T22:17:40.872Z,96584.69
2023-02-17T22:20:27.342Z,96578.13
2023-02-17T22:23:13.489Z,96582.19
2023-02-17T22:25:59.469Z,96580.09
2023-02-17T22:28:45.788Z,96573.78
2023-02-17T22:31:32.635Z,96580.25
2023-02-17T22:34:18.404Z,96593.97
2023-02-17T22:37:04.422Z,96579.94
2023-02-17T22:39:54.524Z,96566.66
2023-02-17T22:42:40.710Z,96583.75
2023-02-17T22:45:26.973Z,96582.50
2023-02-17T22:48:12.883Z,96578.44
2023-02-17T22:50:58.731Z,96584.69
2023-02-17T22:53:45.271Z,96573.50
2023-02-17T22:56:31.379Z,96578.53
2023-02-17T22:59:17.356Z,96564.53
2023-02-17T23:02:03.276Z,96564.22
2023-02-17T23:04:49.166Z,96566.88
2023-02-17T23:07:34.990Z,96573.59
2023-02-17T23:10:20.976Z,96575.72
2023-02-17T23:13:06.704Z,96569.00
2023-02-17T23:15:52.495Z,96583.13
2023-02-17T23:18:38.620Z,96562.09
2023-02-17T23:21:24.686Z,96571.34
2023-02-17T23:24:10.853Z,96575.38
2023-02-17T23:26:57.936Z,96560.81
2023-02-17T23:29:43.676Z,96566.13
2023-02-17T23:32:29.563Z,96574.38
2023-02-17T23:35:15.821Z,96568.38
2023-02-17T23:38:01.685Z,96559.69
2023-02-17T23:40:50.633Z,96566.41
2023-02-17T23:43:36.697Z,96561.94
2023-02-17T23:46:22.667Z,96562.91
2023-02-17T23:49:09.129Z,96528.06
2023-02-17T23:51:54.889Z,96544.88
2023-02-17T23:54:41.052Z,96547.78
2023-02-17T23:57:27.835Z,96545.41
